Terminal Aerodrome Forecast
Issued by NWS

Home | Current Version | Previous Version | Text Only | Print | Product List | Glossary On
Versions: 1 2 3 4 5 6 7 8 9 10 11 12
690
FTUS45 KRIW 261131
TAFCOD
TAF
KCOD 261131Z 2612/2712 34007KT P6SM SKC
     FM261700 03010KT P6SM SKC
     FM262100 VRB10G16KT P6SM VCTS SCT090CB BKN150
     FM270300 36006KT P6SM VCSH SCT100
     FM271000 VRB05KT P6SM SKC
      AMD LTD TO CLD VIS AND WIND=

USA.gov is the U.S. government's official web portal to all federal, state and local government web resources and services.